sensor_id;sensor_type;location;lat;lon;timestamp;P1;durP1;ratioP1;P2;durP2;ratioP2
22318;SDS011;11327;52.334;9.506;2023-03-23T00:02:00;5.83;;;2.75;;
22318;SDS011;11327;52.334;9.506;2023-03-23T00:05:21;3.80;;;2.55;;
22318;SDS011;11327;52.334;9.506;2023-03-23T00:08:42;6.53;;;3.10;;
22318;SDS011;11327;52.334;9.506;2023-03-23T00:12:07;5.33;;;2.70;;
22318;SDS011;11327;52.334;9.506;2023-03-23T00:15:28;4.55;;;2.70;;
22318;SDS011;11327;52.334;9.506;2023-03-23T00:18:53;4.55;;;3.10;;
22318;SDS011;11327;52.334;9.506;2023-03-23T00:22:14;4.60;;;2.90;;
22318;SDS011;11327;52.334;9.506;2023-03-23T00:25:41;6.28;;;3.00;;
22318;SDS011;11327;52.334;9.506;2023-03-23T00:29:05;6.20;;;2.70;;
22318;SDS011;11327;52.334;9.506;2023-03-23T00:32:27;3.60;;;2.60;;
22318;SDS011;11327;52.334;9.506;2023-03-23T00:35:49;5.58;;;2.90;;
22318;SDS011;11327;52.334;9.506;2023-03-23T00:39:12;4.95;;;2.70;;
22318;SDS011;11327;52.334;9.506;2023-03-23T00:42:33;7.80;;;2.98;;
22318;SDS011;11327;52.334;9.506;2023-03-23T00:45:56;4.53;;;2.87;;
22318;SDS011;11327;52.334;9.506;2023-03-23T00:49:20;3.77;;;2.70;;
22318;SDS011;11327;52.334;9.506;2023-03-23T00:52:43;5.75;;;2.62;;
22318;SDS011;11327;52.334;9.506;2023-03-23T00:56:04;7.05;;;3.08;;
22318;SDS011;11327;52.334;9.506;2023-03-23T00:59:26;4.72;;;3.08;;
22318;SDS011;11327;52.334;9.506;2023-03-23T01:02:47;6.00;;;3.30;;
22318;SDS011;11327;52.334;9.506;2023-03-23T01:06:08;5.03;;;3.50;;
22318;SDS011;11327;52.334;9.506;2023-03-23T01:09:32;4.55;;;3.15;;
22318;SDS011;11327;52.334;9.506;2023-03-23T01:12:53;6.30;;;3.70;;
22318;SDS011;11327;52.334;9.506;2023-03-23T01:16:14;5.10;;;3.42;;
22318;SDS011;11327;52.334;9.506;2023-03-23T01:19:35;5.17;;;3.80;;
22318;SDS011;11327;52.334;9.506;2023-03-23T01:22:58;6.95;;;3.70;;
22318;SDS011;11327;52.334;9.506;2023-03-23T01:26:22;4.95;;;3.67;;
22318;SDS011;11327;52.334;9.506;2023-03-23T01:29:45;5.97;;;3.85;;
22318;SDS011;11327;52.334;9.506;2023-03-23T01:33:05;5.80;;;3.45;;
22318;SDS011;11327;52.334;9.506;2023-03-23T01:36:27;5.75;;;3.65;;
22318;SDS011;11327;52.334;9.506;2023-03-23T01:39:56;5.80;;;3.60;;
22318;SDS011;11327;52.334;9.506;2023-03-23T01:43:15;5.70;;;3.85;;
22318;SDS011;11327;52.334;9.506;2023-03-23T01:46:36;7.37;;;3.87;;
22318;SDS011;11327;52.334;9.506;2023-03-23T01:49:57;5.65;;;3.10;;
22318;SDS011;11327;52.334;9.506;2023-03-23T01:53:18;4.47;;;3.08;;
22318;SDS011;11327;52.334;9.506;2023-03-23T01:56:41;3.85;;;3.02;;
22318;SDS011;11327;52.334;9.506;2023-03-23T02:00:06;5.40;;;2.90;;
22318;SDS011;11327;52.334;9.506;2023-03-23T02:03:33;5.10;;;3.00;;
22318;SDS011;11327;52.334;9.506;2023-03-23T02:06:56;4.28;;;3.02;;
22318;SDS011;11327;52.334;9.506;2023-03-23T02:10:18;5.72;;;3.37;;
22318;SDS011;11327;52.334;9.506;2023-03-23T02:13:38;6.05;;;3.00;;
22318;SDS011;11327;52.334;9.506;2023-03-23T02:28:12;5.78;;;3.20;;
22318;SDS011;11327;52.334;9.506;2023-03-23T02:31:43;4.20;;;3.27;;
22318;SDS011;11327;52.334;9.506;2023-03-23T02:35:18;5.17;;;3.08;;
22318;SDS011;11327;52.334;9.506;2023-03-23T02:38:51;4.60;;;2.95;;
22318;SDS011;11327;52.334;9.506;2023-03-23T02:42:29;5.75;;;2.98;;
22318;SDS011;11327;52.334;9.506;2023-03-23T02:45:52;5.12;;;2.90;;
22318;SDS011;11327;52.334;9.506;2023-03-23T02:49:15;5.15;;;3.08;;
22318;SDS011;11327;52.334;9.506;2023-03-23T02:52:38;4.75;;;3.10;;
22318;SDS011;11327;52.334;9.506;2023-03-23T02:56:02;4.50;;;2.90;;
22318;SDS011;11327;52.334;9.506;2023-03-23T02:59:25;5.60;;;3.42;;
22318;SDS011;11327;52.334;9.506;2023-03-23T03:02:47;6.47;;;3.30;;
22318;SDS011;11327;52.334;9.506;2023-03-23T03:10:02;4.65;;;3.15;;
22318;SDS011;11327;52.334;9.506;2023-03-23T03:20:26;4.67;;;3.00;;
22318;SDS011;11327;52.334;9.506;2023-03-23T03:23:50;5.05;;;3.00;;
22318;SDS011;11327;52.334;9.506;2023-03-23T03:27:12;5.17;;;3.15;;
22318;SDS011;11327;52.334;9.506;2023-03-23T03:30:37;6.42;;;3.08;;
22318;SDS011;11327;52.334;9.506;2023-03-23T03:33:58;4.58;;;2.80;;
22318;SDS011;11327;52.334;9.506;2023-03-23T03:37:21;6.10;;;2.85;;
22318;SDS011;11327;52.334;9.506;2023-03-23T03:40:41;4.20;;;2.70;;
22318;SDS011;11327;52.334;9.506;2023-03-23T03:44:07;3.67;;;2.30;;
22318;SDS011;11327;52.334;9.506;2023-03-23T03:47:26;4.35;;;2.37;;
22318;SDS011;11327;52.334;9.506;2023-03-23T03:50:46;3.67;;;2.40;;
22318;SDS011;11327;52.334;9.506;2023-03-23T03:54:07;5.47;;;2.40;;
22318;SDS011;11327;52.334;9.506;2023-03-23T03:57:28;3.37;;;1.92;;
22318;SDS011;11327;52.334;9.506;2023-03-23T04:00:49;4.58;;;2.02;;
22318;SDS011;11327;52.334;9.506;2023-03-23T04:04:10;3.22;;;2.30;;
22318;SDS011;11327;52.334;9.506;2023-03-23T04:07:30;4.10;;;2.10;;
22318;SDS011;11327;52.334;9.506;2023-03-23T04:10:51;3.67;;;2.05;;
22318;SDS011;11327;52.334;9.506;2023-03-23T04:14:12;2.90;;;1.75;;
22318;SDS011;11327;52.334;9.506;2023-03-23T04:17:33;3.75;;;2.00;;
22318;SDS011;11327;52.334;9.506;2023-03-23T04:20:56;2.98;;;1.75;;
22318;SDS011;11327;52.334;9.506;2023-03-23T04:24:18;3.37;;;1.92;;
22318;SDS011;11327;52.334;9.506;2023-03-23T04:27:41;3.22;;;1.98;;
22318;SDS011;11327;52.334;9.506;2023-03-23T04:31:06;3.47;;;1.82;;
22318;SDS011;11327;52.334;9.506;2023-03-23T04:34:29;3.65;;;1.92;;
22318;SDS011;11327;52.334;9.506;2023-03-23T04:37:52;4.97;;;1.87;;
22318;SDS011;11327;52.334;9.506;2023-03-23T04:41:13;4.20;;;1.60;;
22318;SDS011;11327;52.334;9.506;2023-03-23T04:44:34;3.55;;;1.80;;
22318;SDS011;11327;52.334;9.506;2023-03-23T04:47:54;4.30;;;1.80;;
22318;SDS011;11327;52.334;9.506;2023-03-23T04:51:17;3.87;;;1.70;;
22318;SDS011;11327;52.334;9.506;2023-03-23T04:54:38;4.42;;;1.50;;
22318;SDS011;11327;52.334;9.506;2023-03-23T04:57:59;3.15;;;1.75;;
22318;SDS011;11327;52.334;9.506;2023-03-23T05:01:21;3.27;;;1.72;;
22318;SDS011;11327;52.334;9.506;2023-03-23T05:04:42;2.45;;;1.50;;
22318;SDS011;11327;52.334;9.506;2023-03-23T05:08:03;4.53;;;1.75;;
22318;SDS011;11327;52.334;9.506;2023-03-23T05:11:24;2.55;;;1.45;;
22318;SDS011;11327;52.334;9.506;2023-03-23T05:14:45;2.20;;;1.45;;
22318;SDS011;11327;52.334;9.506;2023-03-23T05:18:06;3.12;;;1.55;;
22318;SDS011;11327;52.334;9.506;2023-03-23T05:21:27;3.17;;;1.55;;
22318;SDS011;11327;52.334;9.506;2023-03-23T05:24:48;1.90;;;1.20;;
22318;SDS011;11327;52.334;9.506;2023-03-23T05:28:11;2.58;;;1.45;;
22318;SDS011;11327;52.334;9.506;2023-03-23T05:31:32;3.02;;;1.35;;
22318;SDS011;11327;52.334;9.506;2023-03-23T05:34:54;2.77;;;1.25;;
22318;SDS011;11327;52.334;9.506;2023-03-23T05:38:18;1.77;;;1.30;;
22318;SDS011;11327;52.334;9.506;2023-03-23T05:41:39;2.37;;;1.17;;
22318;SDS011;11327;52.334;9.506;2023-03-23T05:45:01;5.85;;;1.47;;
22318;SDS011;11327;52.334;9.506;2023-03-23T05:48:23;2.37;;;1.20;;
22318;SDS011;11327;52.334;9.506;2023-03-23T05:51:44;1.80;;;1.22;;
22318;SDS011;11327;52.334;9.506;2023-03-23T05:55:10;1.60;;;1.00;;
22318;SDS011;11327;52.334;9.506;2023-03-23T05:58:32;1.55;;;1.10;;
22318;SDS011;11327;52.334;9.506;2023-03-23T06:01:53;2.67;;;1.20;;
22318;SDS011;11327;52.334;9.506;2023-03-23T06:05:17;2.15;;;1.30;;
22318;SDS011;11327;52.334;9.506;2023-03-23T06:08:38;3.27;;;1.37;;
22318;SDS011;11327;52.334;9.506;2023-03-23T06:11:59;1.95;;;1.20;;
22318;SDS011;11327;52.334;9.506;2023-03-23T06:15:20;1.70;;;1.17;;
22318;SDS011;11327;52.334;9.506;2023-03-23T06:18:41;2.45;;;1.10;;
22318;SDS011;11327;52.334;9.506;2023-03-23T06:22:03;1.42;;;0.98;;
22318;SDS011;11327;52.334;9.506;2023-03-23T06:25:24;1.30;;;0.98;;
22318;SDS011;11327;52.334;9.506;2023-03-23T06:28:44;2.33;;;1.30;;
22318;SDS011;11327;52.334;9.506;2023-03-23T06:32:05;1.70;;;1.00;;
22318;SDS011;11327;52.334;9.506;2023-03-23T06:35:26;1.45;;;1.10;;
22318;SDS011;11327;52.334;9.506;2023-03-23T06:38:47;1.72;;;1.10;;
22318;SDS011;11327;52.334;9.506;2023-03-23T06:42:09;2.20;;;1.15;;
22318;SDS011;11327;52.334;9.506;2023-03-23T06:45:33;2.02;;;1.25;;
22318;SDS011;11327;52.334;9.506;2023-03-23T06:48:54;2.30;;;1.20;;
22318;SDS011;11327;52.334;9.506;2023-03-23T06:52:15;1.87;;;1.30;;
22318;SDS011;11327;52.334;9.506;2023-03-23T06:55:36;2.70;;;1.20;;
22318;SDS011;11327;52.334;9.506;2023-03-23T06:58:58;2.58;;;1.30;;
22318;SDS011;11327;52.334;9.506;2023-03-23T07:02:19;2.22;;;1.35;;
22318;SDS011;11327;52.334;9.506;2023-03-23T07:05:40;3.05;;;1.50;;
22318;SDS011;11327;52.334;9.506;2023-03-23T07:09:01;2.42;;;1.40;;
22318;SDS011;11327;52.334;9.506;2023-03-23T07:12:22;1.87;;;1.40;;
22318;SDS011;11327;52.334;9.506;2023-03-23T07:15:43;2.20;;;1.30;;
22318;SDS011;11327;52.334;9.506;2023-03-23T07:19:04;3.83;;;1.80;;
22318;SDS011;11327;52.334;9.506;2023-03-23T07:22:25;2.22;;;1.25;;
22318;SDS011;11327;52.334;9.506;2023-03-23T07:25:46;3.02;;;1.60;;
22318;SDS011;11327;52.334;9.506;2023-03-23T07:29:08;2.72;;;1.72;;
22318;SDS011;11327;52.334;9.506;2023-03-23T07:32:29;2.50;;;1.60;;
22318;SDS011;11327;52.334;9.506;2023-03-23T07:35:50;2.77;;;1.70;;
22318;SDS011;11327;52.334;9.506;2023-03-23T07:39:11;4.72;;;1.90;;
22318;SDS011;11327;52.334;9.506;2023-03-23T07:42:32;3.92;;;2.17;;
22318;SDS011;11327;52.334;9.506;2023-03-23T07:45:53;4.72;;;1.87;;
22318;SDS011;11327;52.334;9.506;2023-03-23T07:49:14;2.15;;;1.60;;
22318;SDS011;11327;52.334;9.506;2023-03-23T07:52:35;3.65;;;1.92;;
22318;SDS011;11327;52.334;9.506;2023-03-23T07:55:57;4.67;;;2.00;;
22318;SDS011;11327;52.334;9.506;2023-03-23T07:59:18;3.35;;;1.90;;
22318;SDS011;11327;52.334;9.506;2023-03-23T08:02:38;3.60;;;1.70;;
22318;SDS011;11327;52.334;9.506;2023-03-23T08:05:59;4.92;;;1.70;;
22318;SDS011;11327;52.334;9.506;2023-03-23T08:09:20;2.85;;;1.82;;
22318;SDS011;11327;52.334;9.506;2023-03-23T08:12:42;2.72;;;1.87;;
22318;SDS011;11327;52.334;9.506;2023-03-23T08:16:05;3.00;;;1.90;;
22318;SDS011;11327;52.334;9.506;2023-03-23T08:19:26;3.50;;;1.90;;
22318;SDS011;11327;52.334;9.506;2023-03-23T08:22:54;3.85;;;1.60;;
22318;SDS011;11327;52.334;9.506;2023-03-23T08:26:13;3.80;;;1.95;;
22318;SDS011;11327;52.334;9.506;2023-03-23T08:29:35;3.42;;;2.00;;
22318;SDS011;11327;52.334;9.506;2023-03-23T08:32:56;5.85;;;2.35;;
22318;SDS011;11327;52.334;9.506;2023-03-23T08:36:19;4.17;;;2.20;;
22318;SDS011;11327;52.334;9.506;2023-03-23T08:39:40;5.08;;;1.98;;
22318;SDS011;11327;52.334;9.506;2023-03-23T08:43:03;4.20;;;1.90;;
22318;SDS011;11327;52.334;9.506;2023-03-23T08:46:24;6.15;;;2.10;;
22318;SDS011;11327;52.334;9.506;2023-03-23T08:49:45;4.17;;;1.92;;
22318;SDS011;11327;52.334;9.506;2023-03-23T08:53:06;3.83;;;2.20;;
22318;SDS011;11327;52.334;9.506;2023-03-23T08:56:27;4.83;;;2.33;;
22318;SDS011;11327;52.334;9.506;2023-03-23T08:59:48;4.53;;;2.17;;
22318;SDS011;11327;52.334;9.506;2023-03-23T09:03:09;5.17;;;2.20;;
22318;SDS011;11327;52.334;9.506;2023-03-23T09:06:30;4.35;;;2.00;;
22318;SDS011;11327;52.334;9.506;2023-03-23T09:09:51;4.10;;;2.00;;
22318;SDS011;11327;52.334;9.506;2023-03-23T09:13:11;4.70;;;1.90;;
22318;SDS011;11327;52.334;9.506;2023-03-23T09:16:32;4.60;;;1.92;;
22318;SDS011;11327;52.334;9.506;2023-03-23T09:19:53;6.85;;;2.00;;
22318;SDS011;11327;52.334;9.506;2023-03-23T09:23:14;6.40;;;2.08;;
22318;SDS011;11327;52.334;9.506;2023-03-23T09:26:35;5.15;;;2.00;;
22318;SDS011;11327;52.334;9.506;2023-03-23T09:29:56;4.62;;;1.90;;
22318;SDS011;11327;52.334;9.506;2023-03-23T09:33:17;5.85;;;2.30;;
22318;SDS011;11327;52.334;9.506;2023-03-23T09:36:38;8.75;;;2.00;;
22318;SDS011;11327;52.334;9.506;2023-03-23T09:39:59;6.08;;;2.52;;
22318;SDS011;11327;52.334;9.506;2023-03-23T09:43:43;5.78;;;2.12;;
22318;SDS011;11327;52.334;9.506;2023-03-23T09:50:44;4.50;;;1.98;;
22318;SDS011;11327;52.334;9.506;2023-03-23T09:54:20;4.53;;;1.80;;
22318;SDS011;11327;52.334;9.506;2023-03-23T09:57:46;5.35;;;1.82;;
22318;SDS011;11327;52.334;9.506;2023-03-23T10:04:39;5.78;;;2.50;;
22318;SDS011;11327;52.334;9.506;2023-03-23T10:08:22;5.97;;;1.90;;
22318;SDS011;11327;52.334;9.506;2023-03-23T10:15:20;5.75;;;2.08;;
22318;SDS011;11327;52.334;9.506;2023-03-23T10:18:52;4.60;;;2.08;;
22318;SDS011;11327;52.334;9.506;2023-03-23T10:22:15;4.08;;;2.05;;
22318;SDS011;11327;52.334;9.506;2023-03-23T10:25:41;4.70;;;2.05;;
22318;SDS011;11327;52.334;9.506;2023-03-23T10:32:39;5.45;;;3.20;;
22318;SDS011;11327;52.334;9.506;2023-03-23T10:36:07;4.87;;;2.45;;
22318;SDS011;11327;52.334;9.506;2023-03-23T10:39:53;5.58;;;2.27;;
22318;SDS011;11327;52.334;9.506;2023-03-23T10:43:15;4.75;;;2.95;;
22318;SDS011;11327;52.334;9.506;2023-03-23T10:50:15;5.62;;;2.52;;
22318;SDS011;11327;52.334;9.506;2023-03-23T10:53:42;4.97;;;2.45;;
22318;SDS011;11327;52.334;9.506;2023-03-23T10:57:20;4.95;;;2.10;;
22318;SDS011;11327;52.334;9.506;2023-03-23T11:00:45;4.65;;;2.02;;
22318;SDS011;11327;52.334;9.506;2023-03-23T11:04:13;4.12;;;1.98;;
22318;SDS011;11327;52.334;9.506;2023-03-23T11:07:36;5.12;;;2.20;;
22318;SDS011;11327;52.334;9.506;2023-03-23T11:10:58;4.05;;;2.12;;
22318;SDS011;11327;52.334;9.506;2023-03-23T11:14:25;5.62;;;1.98;;
22318;SDS011;11327;52.334;9.506;2023-03-23T11:17:55;6.40;;;2.33;;
22318;SDS011;11327;52.334;9.506;2023-03-23T11:21:22;5.67;;;2.10;;
22318;SDS011;11327;52.334;9.506;2023-03-23T11:24:45;5.83;;;2.30;;
22318;SDS011;11327;52.334;9.506;2023-03-23T11:28:07;6.92;;;2.50;;
22318;SDS011;11327;52.334;9.506;2023-03-23T11:31:30;4.92;;;2.27;;
22318;SDS011;11327;52.334;9.506;2023-03-23T11:34:54;8.08;;;2.83;;
22318;SDS011;11327;52.334;9.506;2023-03-23T11:38:19;7.97;;;2.60;;
22318;SDS011;11327;52.334;9.506;2023-03-23T11:41:41;8.60;;;2.47;;
22318;SDS011;11327;52.334;9.506;2023-03-23T11:48:58;5.67;;;2.63;;
22318;SDS011;11327;52.334;9.506;2023-03-23T11:52:20;6.78;;;2.10;;
22318;SDS011;11327;52.334;9.506;2023-03-23T11:55:52;8.15;;;2.67;;
22318;SDS011;11327;52.334;9.506;2023-03-23T11:59:17;3.55;;;1.92;;
22318;SDS011;11327;52.334;9.506;2023-03-23T12:02:52;4.42;;;1.92;;
22318;SDS011;11327;52.334;9.506;2023-03-23T12:06:34;3.47;;;1.32;;
22318;SDS011;11327;52.334;9.506;2023-03-23T12:14:07;3.45;;;1.00;;
22318;SDS011;11327;52.334;9.506;2023-03-23T12:32:47;3.15;;;0.90;;
22318;SDS011;11327;52.334;9.506;2023-03-23T12:36:24;3.40;;;1.10;;
22318;SDS011;11327;52.334;9.506;2023-03-23T12:47:20;1.40;;;0.70;;
22318;SDS011;11327;52.334;9.506;2023-03-23T12:50:45;1.30;;;0.55;;
22318;SDS011;11327;52.334;9.506;2023-03-23T12:54:14;2.00;;;0.78;;
22318;SDS011;11327;52.334;9.506;2023-03-23T12:57:41;0.98;;;0.53;;
22318;SDS011;11327;52.334;9.506;2023-03-23T13:01:11;1.32;;;0.62;;
22318;SDS011;11327;52.334;9.506;2023-03-23T13:04:36;2.30;;;0.80;;
22318;SDS011;11327;52.334;9.506;2023-03-23T13:08:11;2.30;;;0.65;;
22318;SDS011;11327;52.334;9.506;2023-03-23T13:11:38;1.82;;;0.55;;
22318;SDS011;11327;52.334;9.506;2023-03-23T13:18:39;1.47;;;0.50;;
22318;SDS011;11327;52.334;9.506;2023-03-23T13:22:11;1.82;;;0.50;;
22318;SDS011;11327;52.334;9.506;2023-03-23T13:29:15;2.50;;;0.60;;
22318;SDS011;11327;52.334;9.506;2023-03-23T13:32:40;1.17;;;0.60;;
22318;SDS011;11327;52.334;9.506;2023-03-23T13:36:04;2.77;;;0.60;;
22318;SDS011;11327;52.334;9.506;2023-03-23T13:39:29;2.08;;;0.70;;
22318;SDS011;11327;52.334;9.506;2023-03-23T13:42:57;1.45;;;0.70;;
22318;SDS011;11327;52.334;9.506;2023-03-23T13:46:27;1.98;;;0.50;;
22318;SDS011;11327;52.334;9.506;2023-03-23T13:49:54;2.12;;;0.93;;
22318;SDS011;11327;52.334;9.506;2023-03-23T13:57:00;3.15;;;0.47;;
22318;SDS011;11327;52.334;9.506;2023-03-23T14:03:53;3.42;;;0.60;;
22318;SDS011;11327;52.334;9.506;2023-03-23T14:07:16;2.05;;;0.50;;
22318;SDS011;11327;52.334;9.506;2023-03-23T14:10:40;2.30;;;0.50;;
22318;SDS011;11327;52.334;9.506;2023-03-23T14:14:04;0.90;;;0.50;;
22318;SDS011;11327;52.334;9.506;2023-03-23T14:17:39;1.95;;;0.70;;
22318;SDS011;11327;52.334;9.506;2023-03-23T14:20:57;3.33;;;0.70;;
22318;SDS011;11327;52.334;9.506;2023-03-23T14:24:21;1.30;;;0.80;;
22318;SDS011;11327;52.334;9.506;2023-03-23T14:27:44;1.45;;;1.00;;
22318;SDS011;11327;52.334;9.506;2023-03-23T14:31:14;2.72;;;0.95;;
22318;SDS011;11327;52.334;9.506;2023-03-23T14:34:40;1.60;;;0.78;;
22318;SDS011;11327;52.334;9.506;2023-03-23T14:38:00;1.52;;;0.80;;
22318;SDS011;11327;52.334;9.506;2023-03-23T14:41:22;2.58;;;0.90;;
22318;SDS011;11327;52.334;9.506;2023-03-23T14:44:44;1.42;;;0.88;;
22318;SDS011;11327;52.334;9.506;2023-03-23T14:48:09;2.47;;;1.22;;
22318;SDS011;11327;52.334;9.506;2023-03-23T14:51:32;1.37;;;0.85;;
22318;SDS011;11327;52.334;9.506;2023-03-23T14:54:53;1.65;;;0.85;;
22318;SDS011;11327;52.334;9.506;2023-03-23T14:58:16;1.95;;;0.90;;
22318;SDS011;11327;52.334;9.506;2023-03-23T15:01:39;2.10;;;0.90;;
22318;SDS011;11327;52.334;9.506;2023-03-23T15:05:03;1.98;;;1.02;;
22318;SDS011;11327;52.334;9.506;2023-03-23T15:08:35;3.15;;;1.00;;
22318;SDS011;11327;52.334;9.506;2023-03-23T15:12:00;1.65;;;0.98;;
22318;SDS011;11327;52.334;9.506;2023-03-23T15:15:22;1.98;;;1.02;;
22318;SDS011;11327;52.334;9.506;2023-03-23T15:18:50;2.05;;;1.15;;
22318;SDS011;11327;52.334;9.506;2023-03-23T15:22:23;1.87;;;1.12;;
22318;SDS011;11327;52.334;9.506;2023-03-23T15:25:47;2.15;;;1.17;;
22318;SDS011;11327;52.334;9.506;2023-03-23T15:29:12;2.90;;;1.15;;
22318;SDS011;11327;52.334;9.506;2023-03-23T15:32:39;2.40;;;1.30;;
22318;SDS011;11327;52.334;9.506;2023-03-23T15:36:14;2.80;;;1.50;;
22318;SDS011;11327;52.334;9.506;2023-03-23T15:39:39;1.85;;;1.30;;
22318;SDS011;11327;52.334;9.506;2023-03-23T15:46:47;2.47;;;1.30;;
22318;SDS011;11327;52.334;9.506;2023-03-23T15:53:50;2.58;;;1.27;;
22318;SDS011;11327;52.334;9.506;2023-03-23T15:57:12;2.15;;;1.47;;
22318;SDS011;11327;52.334;9.506;2023-03-23T16:00:33;3.10;;;1.40;;
22318;SDS011;11327;52.334;9.506;2023-03-23T16:03:56;4.33;;;1.22;;
22318;SDS011;11327;52.334;9.506;2023-03-23T16:07:25;1.72;;;1.30;;
22318;SDS011;11327;52.334;9.506;2023-03-23T16:10:46;2.50;;;1.12;;
22318;SDS011;11327;52.334;9.506;2023-03-23T16:14:07;2.67;;;1.15;;
22318;SDS011;11327;52.334;9.506;2023-03-23T16:17:28;2.30;;;1.20;;
22318;SDS011;11327;52.334;9.506;2023-03-23T16:20:49;3.15;;;1.40;;
22318;SDS011;11327;52.334;9.506;2023-03-23T16:24:10;2.55;;;1.40;;
22318;SDS011;11327;52.334;9.506;2023-03-23T16:27:30;2.22;;;1.32;;
22318;SDS011;11327;52.334;9.506;2023-03-23T16:30:51;3.72;;;1.47;;
22318;SDS011;11327;52.334;9.506;2023-03-23T16:34:12;3.17;;;2.02;;
22318;SDS011;11327;52.334;9.506;2023-03-23T16:37:33;3.45;;;2.00;;
22318;SDS011;11327;52.334;9.506;2023-03-23T16:40:54;3.77;;;1.87;;
22318;SDS011;11327;52.334;9.506;2023-03-23T16:44:15;5.30;;;1.90;;
22318;SDS011;11327;52.334;9.506;2023-03-23T16:47:35;3.52;;;1.55;;
22318;SDS011;11327;52.334;9.506;2023-03-23T16:50:57;3.85;;;1.60;;
22318;SDS011;11327;52.334;9.506;2023-03-23T16:54:17;3.47;;;1.62;;
22318;SDS011;11327;52.334;9.506;2023-03-23T16:57:38;3.77;;;2.05;;
22318;SDS011;11327;52.334;9.506;2023-03-23T17:00:59;3.42;;;1.90;;
22318;SDS011;11327;52.334;9.506;2023-03-23T17:04:20;2.90;;;1.92;;
22318;SDS011;11327;52.334;9.506;2023-03-23T17:07:41;4.25;;;2.10;;
22318;SDS011;11327;52.334;9.506;2023-03-23T17:11:02;3.90;;;2.08;;
22318;SDS011;11327;52.334;9.506;2023-03-23T17:14:22;5.62;;;2.22;;
22318;SDS011;11327;52.334;9.506;2023-03-23T17:17:43;6.53;;;2.37;;
22318;SDS011;11327;52.334;9.506;2023-03-23T17:21:04;4.87;;;2.22;;
22318;SDS011;11327;52.334;9.506;2023-03-23T17:24:26;4.47;;;2.45;;
22318;SDS011;11327;52.334;9.506;2023-03-23T17:27:46;2.40;;;1.95;;
22318;SDS011;11327;52.334;9.506;2023-03-23T17:31:07;5.33;;;2.20;;
22318;SDS011;11327;52.334;9.506;2023-03-23T17:34:28;5.05;;;2.35;;
22318;SDS011;11327;52.334;9.506;2023-03-23T17:37:49;5.20;;;2.22;;
22318;SDS011;11327;52.334;9.506;2023-03-23T17:41:09;5.17;;;2.52;;
22318;SDS011;11327;52.334;9.506;2023-03-23T17:44:30;3.75;;;2.45;;
22318;SDS011;11327;52.334;9.506;2023-03-23T17:47:53;4.08;;;2.20;;
22318;SDS011;11327;52.334;9.506;2023-03-23T17:51:14;3.70;;;2.40;;
22318;SDS011;11327;52.334;9.506;2023-03-23T17:54:35;3.98;;;2.40;;
22318;SDS011;11327;52.334;9.506;2023-03-23T17:57:55;3.25;;;2.20;;
22318;SDS011;11327;52.334;9.506;2023-03-23T18:01:16;3.83;;;2.50;;
22318;SDS011;11327;52.334;9.506;2023-03-23T18:04:37;3.98;;;2.85;;
22318;SDS011;11327;52.334;9.506;2023-03-23T18:07:58;4.33;;;2.40;;
22318;SDS011;11327;52.334;9.506;2023-03-23T18:11:18;7.58;;;3.62;;
22318;SDS011;11327;52.334;9.506;2023-03-23T18:14:39;5.55;;;3.20;;
22318;SDS011;11327;52.334;9.506;2023-03-23T18:18:00;6.03;;;3.50;;
22318;SDS011;11327;52.334;9.506;2023-03-23T18:21:22;4.90;;;3.12;;
22318;SDS011;11327;52.334;9.506;2023-03-23T18:24:43;5.92;;;3.45;;
22318;SDS011;11327;52.334;9.506;2023-03-23T18:28:04;5.75;;;3.70;;
22318;SDS011;11327;52.334;9.506;2023-03-23T18:31:26;9.73;;;6.05;;
22318;SDS011;11327;52.334;9.506;2023-03-23T18:34:48;5.62;;;3.65;;
22318;SDS011;11327;52.334;9.506;2023-03-23T18:38:09;5.67;;;3.60;;
22318;SDS011;11327;52.334;9.506;2023-03-23T18:41:31;5.97;;;3.90;;
22318;SDS011;11327;52.334;9.506;2023-03-23T18:44:55;6.95;;;3.62;;
22318;SDS011;11327;52.334;9.506;2023-03-23T18:48:18;5.97;;;3.90;;
22318;SDS011;11327;52.334;9.506;2023-03-23T18:51:40;5.58;;;3.65;;
22318;SDS011;11327;52.334;9.506;2023-03-23T18:55:01;7.03;;;3.92;;
22318;SDS011;11327;52.334;9.506;2023-03-23T18:58:21;4.03;;;2.92;;
22318;SDS011;11327;52.334;9.506;2023-03-23T19:01:42;6.45;;;3.45;;
22318;SDS011;11327;52.334;9.506;2023-03-23T19:05:03;5.67;;;3.52;;
22318;SDS011;11327;52.334;9.506;2023-03-23T19:08:25;5.45;;;3.50;;
22318;SDS011;11327;52.334;9.506;2023-03-23T19:11:47;4.65;;;3.62;;
22318;SDS011;11327;52.334;9.506;2023-03-23T19:15:07;5.03;;;3.30;;
22318;SDS011;11327;52.334;9.506;2023-03-23T19:18:28;3.60;;;2.90;;
22318;SDS011;11327;52.334;9.506;2023-03-23T19:21:49;4.25;;;2.72;;
22318;SDS011;11327;52.334;9.506;2023-03-23T19:25:10;4.87;;;2.98;;
22318;SDS011;11327;52.334;9.506;2023-03-23T19:28:31;5.45;;;2.80;;
22318;SDS011;11327;52.334;9.506;2023-03-23T19:31:52;5.35;;;2.92;;
22318;SDS011;11327;52.334;9.506;2023-03-23T19:35:13;6.30;;;3.62;;
22318;SDS011;11327;52.334;9.506;2023-03-23T19:38:34;7.50;;;4.47;;
22318;SDS011;11327;52.334;9.506;2023-03-23T19:41:54;7.20;;;4.67;;
22318;SDS011;11327;52.334;9.506;2023-03-23T19:45:15;6.22;;;4.20;;
22318;SDS011;11327;52.334;9.506;2023-03-23T19:48:36;9.70;;;5.28;;
22318;SDS011;11327;52.334;9.506;2023-03-23T19:51:57;31.17;;;13.32;;
22318;SDS011;11327;52.334;9.506;2023-03-23T19:55:18;12.58;;;6.00;;
22318;SDS011;11327;52.334;9.506;2023-03-23T19:58:39;5.17;;;3.52;;
22318;SDS011;11327;52.334;9.506;2023-03-23T20:01:59;6.25;;;3.00;;
22318;SDS011;11327;52.334;9.506;2023-03-23T20:05:20;4.03;;;2.70;;
22318;SDS011;11327;52.334;9.506;2023-03-23T20:08:44;4.95;;;3.10;;
22318;SDS011;11327;52.334;9.506;2023-03-23T20:12:07;4.80;;;2.40;;
22318;SDS011;11327;52.334;9.506;2023-03-23T20:15:28;2.92;;;1.82;;
22318;SDS011;11327;52.334;9.506;2023-03-23T20:18:50;3.50;;;1.90;;
22318;SDS011;11327;52.334;9.506;2023-03-23T20:22:11;2.62;;;2.08;;
22318;SDS011;11327;52.334;9.506;2023-03-23T20:25:33;3.72;;;1.87;;
22318;SDS011;11327;52.334;9.506;2023-03-23T20:28:54;4.60;;;2.37;;
22318;SDS011;11327;52.334;9.506;2023-03-23T20:32:15;4.30;;;2.30;;
22318;SDS011;11327;52.334;9.506;2023-03-23T20:35:35;6.50;;;2.77;;
22318;SDS011;11327;52.334;9.506;2023-03-23T20:38:57;5.42;;;2.65;;
22318;SDS011;11327;52.334;9.506;2023-03-23T20:42:18;4.60;;;2.85;;
22318;SDS011;11327;52.334;9.506;2023-03-23T20:45:39;5.15;;;3.00;;
22318;SDS011;11327;52.334;9.506;2023-03-23T20:48:59;6.78;;;2.75;;
22318;SDS011;11327;52.334;9.506;2023-03-23T20:52:21;4.15;;;2.98;;
22318;SDS011;11327;52.334;9.506;2023-03-23T20:55:45;5.45;;;2.70;;
22318;SDS011;11327;52.334;9.506;2023-03-23T20:59:05;4.85;;;2.58;;
22318;SDS011;11327;52.334;9.506;2023-03-23T21:02:26;4.87;;;2.70;;
22318;SDS011;11327;52.334;9.506;2023-03-23T21:05:48;4.20;;;2.87;;
22318;SDS011;11327;52.334;9.506;2023-03-23T21:09:10;4.78;;;2.87;;
22318;SDS011;11327;52.334;9.506;2023-03-23T21:12:31;4.80;;;2.90;;
22318;SDS011;11327;52.334;9.506;2023-03-23T21:15:52;5.37;;;2.60;;
22318;SDS011;11327;52.334;9.506;2023-03-23T21:19:13;5.72;;;2.90;;
22318;SDS011;11327;52.334;9.506;2023-03-23T21:22:34;6.33;;;3.22;;
22318;SDS011;11327;52.334;9.506;2023-03-23T21:25:58;4.12;;;3.00;;
22318;SDS011;11327;52.334;9.506;2023-03-23T21:29:22;6.10;;;2.70;;
22318;SDS011;11327;52.334;9.506;2023-03-23T21:32:43;5.85;;;3.33;;
22318;SDS011;11327;52.334;9.506;2023-03-23T21:36:04;5.33;;;2.50;;
22318;SDS011;11327;52.334;9.506;2023-03-23T21:39:25;3.75;;;2.30;;
22318;SDS011;11327;52.334;9.506;2023-03-23T21:42:47;4.47;;;2.27;;
22318;SDS011;11327;52.334;9.506;2023-03-23T21:46:08;3.35;;;2.27;;
22318;SDS011;11327;52.334;9.506;2023-03-23T21:49:32;5.17;;;2.47;;
22318;SDS011;11327;52.334;9.506;2023-03-23T21:52:53;4.35;;;2.60;;
22318;SDS011;11327;52.334;9.506;2023-03-23T21:56:13;4.00;;;2.62;;